Time;durP1;ratioP1;P1;durP2;ratioP2;P2;SDS_P1;SDS_P2;PMS_P1;PMS_P2;Temp;Humidity;BMP_temperature;BMP_pressure;BME280_temperature;BME280_humidity;BME280_pressure;Samples;Min_cycle;Max_cycle;Signal;HPM_P1;HPM_P2
2022/08/21 00:01:26;;;;;;;6.80;3.15;;;16.10;99.90;;;;;;5118306;27;20043;-70
2022/08/21 00:03:52;;;;;;;11.77;3.30;;;16.00;99.90;;;;;;5123333;27;20054;-70
2022/08/21 00:06:19;;;;;;;8.80;3.13;;;16.00;99.90;;;;;;5118491;27;20035;-70
2022/08/21 00:08:44;;;;;;;11.65;2.80;;;16.00;99.90;;;;;;5110188;27;20031;-69
2022/08/21 00:11:10;;;;;;;8.38;3.25;;;16.00;99.90;;;;;;5122282;27;20047;-70
2022/08/21 00:13:36;;;;;;;7.57;2.97;;;16.00;99.90;;;;;;5141830;27;20050;-69
2022/08/21 00:16:03;;;;;;;9.98;3.20;;;15.90;99.90;;;;;;5157854;27;20066;-71
2022/08/21 00:18:29;;;;;;;7.28;2.67;;;15.90;99.90;;;;;;5156328;27;20455;-69
2022/08/21 00:20:54;;;;;;;8.23;2.83;;;15.80;99.90;;;;;;5154141;27;20034;-70
2022/08/21 00:23:21;;;;;;;6.75;3.00;;;15.80;99.90;;;;;;5138800;27;20058;-70
2022/08/21 00:25:47;;;;;;;8.13;2.78;;;15.80;99.90;;;;;;5159868;27;20037;-70
2022/08/21 00:28:13;;;;;;;9.55;2.70;;;15.70;99.90;;;;;;5130513;27;20043;-70
2022/08/21 00:30:39;;;;;;;8.57;2.45;;;15.70;99.90;;;;;;5130874;27;20059;-69
2022/08/21 00:33:06;;;;;;;7.20;2.40;;;15.60;99.90;;;;;;5134505;27;20380;-72
2022/08/21 00:35:35;;;;;;;10.85;3.10;;;15.60;99.90;;;;;;5123160;27;20043;-69
2022/08/21 00:38:05;;;;;;;8.82;3.03;;;15.60;99.90;;;;;;5105089;27;20046;-71
2022/08/21 00:40:43;;;;;;;6.70;2.58;;;15.50;99.90;;;;;;5131642;27;20517;-69
2022/08/21 00:43:12;;;;;;;7.43;2.40;;;15.50;99.90;;;;;;5130356;27;20047;-70
2022/08/21 00:45:38;;;;;;;9.68;3.22;;;15.40;99.90;;;;;;5126587;27;20081;-69
2022/08/21 00:48:04;;;;;;;9.88;3.20;;;15.30;99.90;;;;;;5129465;27;20110;-70
2022/08/21 00:50:34;;;;;;;4.95;2.30;;;15.30;99.90;;;;;;5113379;27;20554;-70
2022/08/21 00:53:01;;;;;;;8.73;2.60;;;15.30;99.90;;;;;;5128507;27;20042;-70
2022/08/21 00:55:29;;;;;;;10.50;2.83;;;15.30;99.90;;;;;;5111195;27;20432;-70
2022/08/21 00:57:57;;;;;;;7.63;2.72;;;15.20;99.90;;;;;;5129893;27;20042;-70
2022/08/21 01:00:28;;;;;;;6.75;2.83;;;15.20;99.90;;;;;;5128846;27;20099;-70
2022/08/21 01:02:54;;;;;;;;;;;15.20;99.90;;;;;;5112574;27;20129;-70
2022/08/21 01:05:20;;;;;;;6.65;2.53;;;15.20;99.90;;;;;;5127866;27;20026;-69
2022/08/21 01:07:46;;;;;;;7.32;2.90;;;15.20;99.90;;;;;;5144768;27;20126;-70
2022/08/21 01:10:14;;;;;;;8.48;2.70;;;15.20;99.90;;;;;;5128053;27;20509;-70
2022/08/21 01:12:40;;;;;;;8.90;3.45;;;15.20;99.90;;;;;;5128625;27;20034;-70
2022/08/21 01:15:08;;;;;;;7.35;2.78;;;15.20;99.90;;;;;;5126341;27;20073;-69
2022/08/21 01:17:35;;;;;;;10.85;3.83;;;15.10;99.90;;;;;;5110372;27;20132;-69
2022/08/21 01:20:07;;;;;;;9.10;3.00;;;15.10;99.90;;;;;;5127670;27;20035;-69
2022/08/21 01:22:33;;;;;;;8.40;3.60;;;15.00;99.90;;;;;;5128566;27;20043;-70
2022/08/21 01:24:58;;;;;;;6.80;2.83;;;15.10;99.90;;;;;;5127053;27;20333;-69
2022/08/21 01:27:24;;;;;;;8.73;3.20;;;15.00;99.90;;;;;;5129932;27;20493;-69
2022/08/21 01:30:01;;;;;;;8.10;3.28;;;15.00;99.90;;;;;;5144229;27;20142;-69
2022/08/21 01:32:27;;;;;;;10.35;3.40;;;15.00;99.90;;;;;;5146680;27;20035;-69
2022/08/21 01:34:53;;;;;;;11.05;4.10;;;15.00;99.90;;;;;;5112017;27;20039;-69
2022/08/21 01:37:21;;;;;;;11.75;3.72;;;14.90;99.90;;;;;;5148110;27;20041;-69
2022/08/21 01:39:48;;;;;;;9.25;3.45;;;14.90;99.90;;;;;;5132544;27;20094;-69
2022/08/21 01:42:14;;;;;;;8.65;3.40;;;14.90;99.90;;;;;;5128813;27;20051;-70
2022/08/21 01:44:41;;;;;;;9.82;3.35;;;14.90;99.90;;;;;;5114450;27;20054;-70
2022/08/21 01:47:09;;;;;;;9.30;4.05;;;14.90;99.90;;;;;;5116729;27;20038;-70
2022/08/21 01:49:36;;;;;;;7.97;3.40;;;14.90;99.90;;;;;;5151865;27;20075;-68
2022/08/21 01:52:03;;;;;;;8.98;3.88;;;14.90;99.90;;;;;;5154577;27;20074;-67
2022/08/21 01:54:30;;;;;;;10.10;3.90;;;14.90;99.90;;;;;;5147947;27;20360;-67
2022/08/21 01:56:56;;;;;;;10.10;3.92;;;14.80;99.90;;;;;;5147645;27;20042;-67
2022/08/21 01:59:23;;;;;;;10.10;4.20;;;14.80;99.90;;;;;;5161325;27;20578;-69
2022/08/21 02:01:50;;;;;;;9.63;4.05;;;14.80;99.90;;;;;;5147743;27;20043;-68
2022/08/21 02:04:16;;;;;;;13.40;5.18;;;14.80;99.90;;;;;;5133851;27;20046;-68
2022/08/21 02:06:42;;;;;;;9.43;3.50;;;14.80;99.90;;;;;;5163258;27;20129;-68
2022/08/21 02:09:10;;;;;;;11.55;4.57;;;14.80;99.90;;;;;;5143280;27;20522;-68
2022/08/21 02:11:40;;;;;;;10.45;4.32;;;14.70;99.90;;;;;;5150849;27;20071;-68
2022/08/21 02:14:11;;;;;;;8.77;3.83;;;14.70;99.90;;;;;;5131475;27;20046;-68
2022/08/21 02:16:37;;;;;;;11.77;4.88;;;14.70;99.90;;;;;;5129672;27;20391;-68
2022/08/21 02:19:03;;;;;;;12.80;4.47;;;14.70;99.90;;;;;;5130699;27;20090;-68
2022/08/21 02:21:29;;;;;;;9.82;5.07;;;14.70;99.90;;;;;;5132381;27;20031;-68
2022/08/21 02:23:55;;;;;;;14.05;4.10;;;14.70;99.90;;;;;;5128574;27;20472;-68
2022/08/21 02:26:21;;;;;;;8.60;4.07;;;14.70;99.90;;;;;;5131378;27;20442;-68
2022/08/21 02:28:47;;;;;;;12.63;4.93;;;14.70;99.90;;;;;;5166726;27;20368;-68
2022/08/21 02:31:14;;;;;;;15.98;6.20;;;14.70;99.90;;;;;;5131715;27;20049;-69
2022/08/21 02:33:40;;;;;;;10.27;4.85;;;14.70;99.90;;;;;;5114861;27;20477;-68
2022/08/21 02:36:07;;;;;;;12.07;4.63;;;14.60;99.90;;;;;;5132212;27;20106;-68
2022/08/21 02:38:38;;;;;;;12.43;4.38;;;14.60;99.90;;;;;;5132584;27;20424;-68
2022/08/21 02:41:08;;;;;;;14.65;6.30;;;14.60;99.90;;;;;;5129715;27;20544;-68
2022/08/21 02:43:35;;;;;;;12.45;5.47;;;14.60;99.90;;;;;;5151177;27;20038;-67
2022/08/21 02:46:07;;;;;;;9.82;5.28;;;14.60;99.90;;;;;;5131487;27;20081;-68
2022/08/21 02:48:33;;;;;;;12.27;5.43;;;14.60;99.90;;;;;;5130339;27;20460;-68
2022/08/21 02:51:06;;;;;;;12.98;5.72;;;14.60;99.90;;;;;;5154228;27;20449;-68
2022/08/21 02:53:32;;;;;;;13.65;6.35;;;14.50;99.90;;;;;;5144160;27;20099;-67
2022/08/21 02:56:02;;;;;;;15.00;6.20;;;14.60;99.90;;;;;;5150518;27;20038;-67
2022/08/21 02:58:32;;;;;;;10.07;6.30;;;14.50;99.90;;;;;;5130877;27;20436;-67
2022/08/21 03:00:58;;;;;;;16.05;7.43;;;14.60;99.90;;;;;;5149545;27;20378;-67
2022/08/21 03:03:26;;;;;;;13.18;6.72;;;14.60;99.90;;;;;;5113934;27;20118;-67
2022/08/21 03:05:52;;;;;;;13.25;6.22;;;14.60;99.90;;;;;;5116363;27;20051;-67
2022/08/21 03:08:20;;;;;;;15.48;6.63;;;14.60;99.90;;;;;;5132893;27;20080;-68
2022/08/21 03:10:48;;;;;;;12.38;5.95;;;14.50;99.90;;;;;;5129127;27;20560;-68
2022/08/21 03:13:15;;;;;;;17.65;7.47;;;14.50;99.90;;;;;;5134278;27;20046;-68
2022/08/21 03:15:41;;;;;;;15.70;7.50;;;14.60;99.90;;;;;;5149093;27;20031;-68
2022/08/21 03:18:08;;;;;;;12.48;6.95;;;14.60;99.90;;;;;;5134204;27;20042;-68
2022/08/21 03:20:35;;;;;;;14.75;6.60;;;14.50;99.90;;;;;;5133462;27;20126;-68
2022/08/21 03:23:05;;;;;;;14.00;7.15;;;14.50;99.90;;;;;;5134618;27;20598;-68
2022/08/21 03:25:32;;;;;;;11.23;7.03;;;14.50;99.90;;;;;;5130972;27;20050;-68
2022/08/21 03:27:58;;;;;;;15.02;6.95;;;14.50;99.90;;;;;;5165362;27;20648;-67
2022/08/21 03:30:24;;;;;;;16.27;7.47;;;14.60;99.90;;;;;;5153039;27;20130;-67
2022/08/21 03:32:53;;;;;;;15.73;6.97;;;14.60;99.90;;;;;;5114336;27;20130;-67
2022/08/21 03:35:20;;;;;;;15.02;7.72;;;14.50;99.90;;;;;;5129238;27;20146;-67
2022/08/21 03:37:46;;;;;;;12.75;7.07;;;14.50;99.90;;;;;;5114756;27;20046;-68
2022/08/21 03:40:16;;;;;;;13.32;6.57;;;14.50;99.90;;;;;;5114512;27;20192;-68
2022/08/21 03:42:42;;;;;;;15.68;6.70;;;14.50;99.90;;;;;;5115486;27;20050;-68
2022/08/21 03:45:08;;;;;;;10.25;6.38;;;14.50;99.90;;;;;;5139854;27;20030;-68
2022/08/21 03:47:35;;;;;;;14.35;6.43;;;14.50;99.90;;;;;;5131360;27;20046;-68
2022/08/21 03:50:03;;;;;;;13.88;7.25;;;14.50;99.90;;;;;;5146022;27;20126;-68
2022/08/21 03:52:29;;;;;;;15.20;7.82;;;14.50;99.90;;;;;;5130748;27;20031;-68
2022/08/21 03:54:54;;;;;;;16.23;8.07;;;14.50;99.90;;;;;;5134319;27;20039;-70
2022/08/21 03:57:21;;;;;;;12.60;7.03;;;14.50;99.90;;;;;;5129509;27;20892;-67
2022/08/21 03:59:47;;;;;;;14.52;6.90;;;14.50;99.90;;;;;;5148400;27;20042;-68
2022/08/21 04:02:15;;;;;;;12.75;7.10;;;14.50;99.90;;;;;;5129391;27;20039;-68
2022/08/21 04:04:41;;;;;;;11.55;6.85;;;14.50;99.90;;;;;;5113309;27;20066;-68
2022/08/21 04:07:07;;;;;;;12.85;6.55;;;14.30;99.90;;;;;;5154550;27;20487;-68
2022/08/21 04:09:32;;;;;;;13.82;7.03;;;14.50;99.90;;;;;;5127488;27;20050;-67
2022/08/21 04:11:59;;;;;;;11.63;6.13;;;14.50;99.90;;;;;;5148269;27;20045;-68
2022/08/21 04:14:25;;;;;;;12.50;7.28;;;14.50;99.90;;;;;;5150863;27;20037;-68
2022/08/21 04:16:50;;;;;;;15.25;6.95;;;14.50;99.90;;;;;;5147830;27;20128;-67
2022/08/21 04:19:16;;;;;;;10.13;6.00;;;14.40;99.90;;;;;;5130087;27;20042;-68
2022/08/21 04:21:42;;;;;;;12.93;7.20;;;14.40;99.90;;;;;;5162277;27;20098;-68
2022/08/21 04:24:09;;;;;;;15.45;7.45;;;14.40;99.90;;;;;;5133879;27;20516;-68
2022/08/21 04:26:36;;;;;;;12.40;6.43;;;14.40;99.90;;;;;;5128137;27;20086;-67
2022/08/21 04:29:03;;;;;;;14.07;6.93;;;14.40;99.90;;;;;;5113051;27;20043;-68
2022/08/21 04:31:28;;;;;;;12.70;6.80;;;14.40;99.90;;;;;;5146186;27;20499;-67
2022/08/21 04:33:54;;;;;;;15.60;6.68;;;14.40;99.90;;;;;;5112998;27;20106;-67
2022/08/21 04:36:20;;;;;;;20.13;7.47;;;14.40;99.90;;;;;;5148413;27;20030;-69
2022/08/21 04:38:46;;;;;;;14.13;7.15;;;14.40;99.90;;;;;;5130990;27;20043;-69
2022/08/21 04:41:12;;;;;;;12.40;6.53;;;14.40;99.90;;;;;;5147144;27;20038;-69
2022/08/21 04:43:38;;;;;;;14.85;7.03;;;14.40;99.90;;;;;;5149115;27;20035;-69
2022/08/21 04:46:05;;;;;;;15.68;6.72;;;14.40;99.90;;;;;;5127006;27;20038;-70
2022/08/21 04:48:32;;;;;;;11.63;6.63;;;14.40;99.90;;;;;;5156709;27;20038;-71
2022/08/21 04:51:05;;;;;;;12.45;5.68;;;14.40;99.90;;;;;;5130969;27;20082;-69
2022/08/21 04:53:51;;;;;;;15.75;6.63;;;14.40;99.90;;;;;;5134688;27;20175;-69
2022/08/21 04:56:23;;;;;;;13.25;6.10;;;14.40;99.90;;;;;;5158730;27;20041;-69
2022/08/21 04:58:50;;;;;;;15.02;6.57;;;14.50;99.90;;;;;;5158388;27;20586;-68
2022/08/21 05:01:19;;;;;;;14.57;6.93;;;14.40;99.90;;;;;;5134427;27;20118;-69
2022/08/21 05:03:48;;;;;;;13.00;6.53;;;14.50;99.90;;;;;;5129517;27;20058;-68
2022/08/21 05:06:16;;;;;;;16.80;7.18;;;14.50;99.90;;;;;;5148295;27;20403;-69
2022/08/21 05:08:44;;;;;;;14.55;6.50;;;14.50;99.90;;;;;;5129160;27;20055;-70
2022/08/21 05:11:10;;;;;;;16.73;6.68;;;14.50;99.90;;;;;;5129802;27;20035;-69
2022/08/21 05:13:36;;;;;;;16.30;6.38;;;14.60;99.90;;;;;;5152244;27;20070;-69
2022/08/21 05:16:02;;;;;;;15.82;6.32;;;14.60;99.90;;;;;;5130270;27;20077;-69
2022/08/21 05:18:28;;;;;;;13.55;6.22;;;14.60;99.90;;;;;;5150685;27;20070;-69
2022/08/21 05:20:54;;;;;;;16.98;6.22;;;14.60;99.90;;;;;;5130406;27;20462;-69
2022/08/21 05:23:20;;;;;;;11.20;6.35;;;14.70;99.90;;;;;;5113754;27;20074;-68
2022/08/21 05:25:46;;;;;;;13.45;5.70;;;14.80;99.90;;;;;;5128060;27;20517;-69
2022/08/21 05:28:12;;;;;;;14.45;6.15;;;14.80;99.90;;;;;;5128252;27;20040;-69
2022/08/21 05:30:38;;;;;;;15.05;6.38;;;14.90;99.90;;;;;;5129535;27;20117;-68
2022/08/21 05:33:06;;;;;;;13.27;6.18;;;14.90;99.90;;;;;;5146136;27;20055;-69
2022/08/21 05:35:32;;;;;;;13.45;5.38;;;15.00;99.90;;;;;;5147714;27;20063;-68
2022/08/21 05:37:59;;;;;;;13.50;5.68;;;15.10;99.90;;;;;;5154746;27;20062;-69
2022/08/21 05:40:26;;;;;;;14.57;6.72;;;15.10;99.90;;;;;;5111777;27;20035;-68
2022/08/21 05:42:53;;;;;;;10.93;5.53;;;15.10;99.90;;;;;;5128468;27;20459;-68
2022/08/21 05:45:19;;;;;;;18.13;6.18;;;15.20;99.90;;;;;;5148072;27;20062;-69
2022/08/21 05:47:44;;;;;;;15.73;5.93;;;15.20;99.90;;;;;;5111919;27;20043;-69
2022/08/21 05:50:10;;;;;;;12.38;5.88;;;15.20;99.90;;;;;;5151754;27;20087;-69
2022/08/21 05:52:36;;;;;;;14.27;5.90;;;15.20;99.90;;;;;;5128995;27;20074;-69
2022/08/21 05:55:03;;;;;;;11.57;5.63;;;15.30;99.90;;;;;;5152998;27;20075;-69
2022/08/21 05:57:29;;;;;;;11.73;5.78;;;15.40;99.90;;;;;;5120355;27;20507;-69
2022/08/21 05:59:56;;;;;;;12.25;5.82;;;15.50;99.90;;;;;;5160218;27;20035;-70
2022/08/21 06:02:21;;;;;;;13.10;5.63;;;15.40;99.90;;;;;;5150371;27;20055;-68
2022/08/21 06:04:47;;;;;;;12.55;5.50;;;15.40;99.90;;;;;;5149243;27;20110;-69
2022/08/21 06:07:13;;;;;;;15.95;6.00;;;15.50;99.90;;;;;;5152024;27;20153;-69
2022/08/21 06:09:39;;;;;;;13.75;5.70;;;15.50;99.90;;;;;;5128506;27;20085;-69
2022/08/21 06:12:09;;;;;;;15.23;5.65;;;15.50;99.90;;;;;;5125658;27;21767;-69
2022/08/21 06:14:37;;;;;;;12.57;6.03;;;15.50;99.90;;;;;;5111274;27;20043;-69
2022/08/21 06:17:08;;;;;;;16.98;5.82;;;15.60;99.90;;;;;;5153136;27;20129;-69
2022/08/21 06:19:34;;;;;;;16.35;5.07;;;15.60;99.90;;;;;;5125913;27;20039;-69
2022/08/21 06:22:00;;;;;;;14.55;5.57;;;15.60;99.90;;;;;;5157227;27;22046;-69
2022/08/21 06:24:26;;;;;;;14.70;6.00;;;15.70;99.90;;;;;;5125932;27;20518;-69
2022/08/21 06:26:53;;;;;;;12.07;5.25;;;15.80;99.90;;;;;;5091853;27;20601;-69
2022/08/21 06:29:19;;;;;;;14.32;5.20;;;15.80;99.90;;;;;;5131989;27;20035;-70
2022/08/21 06:31:46;;;;;;;15.70;5.30;;;15.80;99.90;;;;;;5146582;27;20066;-69
2022/08/21 06:34:12;;;;;;;15.82;5.15;;;15.90;99.90;;;;;;5158127;27;20026;-69
2022/08/21 06:36:38;;;;;;;12.95;5.72;;;15.90;99.90;;;;;;5153486;27;20056;-69
2022/08/21 06:39:04;;;;;;;18.85;5.80;;;16.00;99.90;;;;;;5124124;27;20474;-69
2022/08/21 06:41:30;;;;;;;15.15;5.53;;;16.00;99.90;;;;;;5142598;27;20126;-69
2022/08/21 06:43:56;;;;;;;15.23;5.68;;;16.10;99.90;;;;;;5144690;27;20047;-69
2022/08/21 06:46:24;;;;;;;11.02;5.45;;;16.20;99.90;;;;;;5144929;27;20035;-69
2022/08/21 06:48:50;;;;;;;11.50;4.75;;;16.30;99.90;;;;;;5138162;27;20045;-69
2022/08/21 06:51:15;;;;;;;11.60;5.20;;;16.30;99.90;;;;;;5122739;27;20411;-69
2022/08/21 06:53:42;;;;;;;14.30;4.72;;;16.40;99.90;;;;;;5145699;27;20084;-68
2022/08/21 06:56:08;;;;;;;13.82;4.95;;;16.40;99.90;;;;;;5127229;27;20079;-70
2022/08/21 06:58:34;;;;;;;14.90;4.55;;;16.50;99.90;;;;;;5139051;27;20452;-70
2022/08/21 07:01:00;;;;;;;11.57;4.90;;;16.50;99.90;;;;;;5144172;27;20039;-69
2022/08/21 07:03:35;;;;;;;12.50;5.32;;;16.60;99.90;;;;;;5120432;27;20134;-68
2022/08/21 07:06:05;;;;;;;11.80;4.20;;;16.70;99.90;;;;;;5140142;27;20414;-69
2022/08/21 07:08:31;;;;;;;12.35;4.20;;;16.80;99.90;;;;;;5142022;27;20041;-69
2022/08/21 07:10:59;;;;;;;12.13;4.40;;;16.80;99.90;;;;;;5127598;27;20499;-69
2022/08/21 07:13:24;;;;;;;11.02;3.42;;;16.90;99.90;;;;;;5138829;27;20031;-70
2022/08/21 07:15:50;;;;;;;12.00;3.67;;;17.00;99.90;;;;;;5127560;27;20278;-69
2022/08/21 07:18:16;;;;;;;13.07;3.88;;;17.10;99.90;;;;;;5163363;27;20034;-70
2022/08/21 07:20:42;;;;;;;12.00;3.38;;;17.20;99.90;;;;;;5141498;27;20034;-70
2022/08/21 07:23:20;;;;;;;8.45;3.03;;;17.30;99.90;;;;;;5140985;27;20046;-70
2022/08/21 07:25:46;;;;;;;14.25;3.28;;;17.50;99.90;;;;;;5152246;27;20406;-69
2022/08/21 07:28:12;;;;;;;13.80;3.88;;;17.60;99.90;;;;;;5138779;27;20039;-70
2022/08/21 07:30:37;;;;;;;11.52;3.05;;;17.70;99.90;;;;;;5138800;27;20081;-69
2022/08/21 07:33:03;;;;;;;13.77;3.50;;;17.90;99.90;;;;;;5152687;27;20373;-69
2022/08/21 07:35:30;;;;;;;13.05;3.00;;;18.00;99.90;;;;;;5144277;27;21870;-69
2022/08/21 07:37:56;;;;;;;11.65;3.08;;;18.20;99.90;;;;;;5099111;27;20046;-70
2022/08/21 07:40:22;;;;;;;12.48;3.30;;;18.40;99.90;;;;;;5130002;27;20440;-69
2022/08/21 07:42:51;;;;;;;9.70;2.90;;;18.50;99.90;;;;;;5114160;27;20101;-69
2022/08/21 07:45:21;;;;;;;16.88;3.75;;;18.70;99.90;;;;;;5115846;27;20457;-70
2022/08/21 07:47:48;;;;;;;12.10;3.13;;;18.90;99.90;;;;;;5114503;27;20050;-69
2022/08/21 07:50:14;;;;;;;18.08;3.10;;;19.00;99.90;;;;;;5137912;27;20427;-69
2022/08/21 07:52:41;;;;;;;16.63;3.95;;;19.20;99.90;;;;;;5134166;27;20050;-69
2022/08/21 07:55:10;;;;;;;12.65;3.17;;;19.40;99.90;;;;;;5138296;27;20042;-69
2022/08/21 07:57:37;;;;;;;15.35;2.78;;;19.50;99.90;;;;;;5110131;27;20122;-68
2022/08/21 08:00:09;;;;;;;13.77;3.13;;;19.70;99.90;;;;;;5148583;27;20038;-69
2022/08/21 08:02:34;;;;;;;9.10;2.63;;;19.80;99.90;;;;;;5116029;27;20063;-69
2022/08/21 08:05:03;;;;;;;12.25;2.65;;;19.90;99.90;;;;;;5138305;27;20623;-70
2022/08/21 08:07:28;;;;;;;11.23;2.45;;;20.10;99.90;;;;;;5113993;27;20521;-69
2022/08/21 08:09:54;;;;;;;12.10;2.38;;;20.30;99.90;;;;;;5151400;27;20058;-70
2022/08/21 08:12:20;;;;;;;12.57;2.95;;;20.40;99.90;;;;;;5101267;27;20117;-70
2022/08/21 08:14:46;;;;;;;10.60;2.70;;;20.60;99.90;;;;;;5117755;27;20368;-70
2022/08/21 08:17:13;;;;;;;12.73;2.78;;;20.70;99.90;;;;;;5121584;27;20444;-71
2022/08/21 08:19:39;;;;;;;12.23;3.00;;;20.80;99.90;;;;;;5122598;27;20394;-70
2022/08/21 08:22:19;;;;;;;12.80;2.45;;;20.80;99.90;;;;;;5154720;27;20057;-69
2022/08/21 08:24:46;;;;;;;12.45;2.92;;;20.80;99.90;;;;;;5132144;27;20134;-70
2022/08/21 08:27:11;;;;;;;10.35;2.65;;;20.90;99.90;;;;;;5134513;27;20046;-70
2022/08/21 08:29:37;;;;;;;12.13;2.50;;;20.90;99.90;;;;;;5112732;27;20043;-70
2022/08/21 08:32:04;;;;;;;11.18;2.53;;;21.00;99.90;;;;;;5139446;27;20042;-70
2022/08/21 08:34:30;;;;;;;12.68;2.67;;;21.10;99.90;;;;;;5108833;27;20554;-70
2022/08/21 08:36:57;;;;;;;10.85;2.58;;;21.10;99.90;;;;;;5113154;27;20046;-71
2022/08/21 08:39:23;;;;;;;12.90;3.00;;;21.10;99.90;;;;;;5093030;27;20065;-69
2022/08/21 08:41:51;;;;;;;16.60;3.83;;;21.10;99.90;;;;;;5123313;27;20039;-70
2022/08/21 08:44:17;;;;;;;17.08;3.50;;;21.10;99.90;;;;;;5127813;27;20042;-70
2022/08/21 08:46:46;;;;;;;14.95;3.10;;;21.20;99.90;;;;;;5111519;27;20042;-67
2022/08/21 08:49:30;;;;;;;8.75;2.28;;;21.30;99.90;;;;;;5123265;27;20047;-67
2022/08/21 08:52:18;;;;;;;9.55;2.20;;;21.40;99.90;;;;;;5137320;27;20094;-67
2022/08/21 08:54:51;;;;;;;15.77;2.67;;;21.60;99.90;;;;;;5101225;27;20055;-68
2022/08/21 08:57:19;;;;;;;11.00;2.90;;;21.60;99.90;;;;;;5104673;27;20578;-68
2022/08/21 08:59:52;;;;;;;14.32;2.72;;;21.60;99.90;;;;;;5107161;27;20254;-68
2022/08/21 09:02:18;;;;;;;14.43;2.45;;;21.60;99.90;;;;;;5127545;27;20051;-71
2022/08/21 09:04:47;;;;;;;12.68;2.40;;;21.70;99.90;;;;;;5150370;27;20470;-70
2022/08/21 09:07:46;;;;;;;8.43;2.33;;;21.80;99.90;;;;;;5129728;27;20395;-69
2022/08/21 09:10:39;;;;;;;8.15;2.35;;;22.00;99.90;;;;;;5138830;27;20038;-70
2022/08/21 09:13:45;;;;;;;9.73;2.58;;;22.10;99.90;;;;;;5109409;27;20065;-71
2022/08/21 09:16:50;;;;;;;10.43;2.80;;;22.10;99.90;;;;;;5024665;28;20489;-71
2022/08/21 09:19:27;;;;;;;11.60;2.55;;;22.00;99.90;;;;;;5059971;28;20183;-68
2022/08/21 09:22:22;;;;;;;13.18;2.83;;;22.00;99.90;;;;;;5100390;27;20061;-68
2022/08/21 09:25:01;;;;;;;12.93;2.97;;;22.00;99.90;;;;;;5147222;27;20045;-70
2022/08/21 09:27:26;;;;;;;10.93;2.78;;;22.20;99.90;;;;;;5113832;27;20050;-71
2022/08/21 09:29:54;;;;;;;19.63;4.18;;;22.40;99.90;;;;;;5146506;27;20088;-68
2022/08/21 09:32:23;;;;;;;16.27;2.50;;;22.40;99.90;;;;;;5128814;27;20441;-68
2022/08/21 09:35:07;;;;;;;14.50;2.70;;;22.50;99.90;;;;;;5117655;27;20123;-68
2022/08/21 09:37:45;;;;;;;12.73;2.50;;;22.50;99.90;;;;;;5120676;27;20414;-66
2022/08/21 09:40:20;;;;;;;12.35;2.80;;;22.60;99.90;;;;;;5108635;27;20514;-69
2022/08/21 09:42:55;;;;;;;10.45;2.30;;;22.60;99.90;;;;;;5141173;27;20031;-70
2022/08/21 09:45:21;;;;;;;11.25;2.55;;;22.70;99.90;;;;;;5130942;27;20043;-67
2022/08/21 09:47:47;;;;;;;12.82;2.85;;;22.80;99.90;;;;;;5144461;27;20461;-68
2022/08/21 09:50:17;;;;;;;12.40;2.55;;;22.90;99.90;;;;;;5143959;27;20035;-68
2022/08/21 09:52:48;;;;;;;14.27;2.67;;;23.00;99.90;;;;;;5118443;27;20054;-68
2022/08/21 09:58:17;;;;;;;11.13;2.35;;;23.10;99.90;;;;;;5111766;27;20035;-67
2022/08/21 10:00:43;;;;;;;13.98;3.00;;;23.20;99.90;;;;;;5130160;27;20092;-70
2022/08/21 10:03:13;;;;;;;14.10;2.78;;;23.30;99.90;;;;;;5126511;27;20150;-68
2022/08/21 10:05:40;;;;;;;13.45;2.00;;;23.40;99.90;;;;;;5114376;27;20134;-69
2022/08/21 10:08:17;;;;;;;11.77;2.70;;;23.40;99.90;;;;;;5112486;27;20615;-69
2022/08/21 10:10:42;;;;;;;12.73;2.40;;;23.40;99.90;;;;;;5143058;27;20100;-68
2022/08/21 10:13:29;;;;;;;10.40;1.83;;;23.40;99.90;;;;;;5108273;27;20499;-69
2022/08/21 10:16:06;;;;;;;10.50;2.10;;;23.40;99.90;;;;;;5128626;27;20510;-70
2022/08/21 10:19:04;;;;;;;15.13;2.33;;;23.40;99.90;;;;;;5112649;27;20050;-69
2022/08/21 10:21:54;;;;;;;10.48;2.35;;;23.30;99.90;;;;;;5086627;27;20054;-68
2022/08/21 10:24:31;;;;;;;12.77;2.88;;;23.20;99.90;;;;;;5125950;27;20109;-69
2022/08/21 10:27:30;;;;;;;9.55;2.45;;;23.10;99.90;;;;;;5128590;27;20071;-69
2022/08/21 10:30:12;;;;;;;14.23;2.22;;;22.90;99.90;;;;;;5127899;27;20624;-70
2022/08/21 10:32:55;;;;;;;11.27;2.60;;;22.90;99.90;;;;;;5110593;27;20055;-69
2022/08/21 10:35:39;;;;;;;15.18;2.53;;;22.80;99.90;;;;;;5130184;27;20127;-70
2022/08/21 10:38:52;;;;;;;9.88;2.25;;;22.70;99.90;;;;;;5128934;27;20047;-71
2022/08/21 10:41:35;;;;;;;10.68;2.75;;;22.60;99.90;;;;;;5080592;27;20142;-70
2022/08/21 10:44:30;;;;;;;12.50;2.72;;;22.50;99.90;;;;;;5112030;27;20045;-70
2022/08/21 10:47:12;;;;;;;13.48;2.75;;;22.40;99.90;;;;;;5137999;27;20042;-69
2022/08/21 10:49:44;;;;;;;16.80;3.03;;;22.40;99.90;;;;;;5139653;27;20037;-68
2022/08/21 10:52:37;;;;;;;12.55;2.45;;;22.40;99.90;;;;;;5146467;27;20049;-68
2022/08/21 10:55:13;;;;;;;14.15;2.95;;;22.40;99.90;;;;;;5153870;27;20582;-68
2022/08/21 10:57:57;;;;;;;14.48;2.53;;;22.30;99.90;;;;;;5132125;27;20043;-70
2022/08/21 11:00:27;;;;;;;19.02;2.90;;;22.30;99.90;;;;;;5134635;27;20642;-71
2022/08/21 11:03:12;;;;;;;19.15;2.90;;;22.30;99.90;;;;;;5103109;27;20050;-68
2022/08/21 11:05:55;;;;;;;16.60;2.70;;;22.40;99.90;;;;;;5128668;27;20039;-68
2022/08/21 11:08:33;;;;;;;12.95;2.35;;;22.60;99.90;;;;;;5139121;27;20246;-69
2022/08/21 11:11:27;;;;;;;10.38;2.50;;;22.70;99.90;;;;;;5153569;27;20095;-69
2022/08/21 11:14:09;;;;;;;9.55;2.33;;;22.80;99.90;;;;;;5137360;27;20059;-68
2022/08/21 11:16:43;;;;;;;13.10;2.88;;;23.00;99.90;;;;;;5119768;27;20051;-68
2022/08/21 11:19:13;;;;;;;13.80;2.75;;;23.10;99.90;;;;;;5121446;27;20057;-68
2022/08/21 11:22:00;;;;;;;10.30;2.37;;;23.20;99.90;;;;;;5136405;27;20124;-68
2022/08/21 11:24:57;;;;;;;13.55;2.70;;;23.40;99.90;;;;;;5137425;27;20296;-68
2022/08/21 11:27:26;;;;;;;14.27;2.75;;;23.40;99.90;;;;;;5103807;27;20046;-69
2022/08/21 11:30:00;;;;;;;8.35;2.30;;;23.50;99.90;;;;;;5130829;27;20039;-68
2022/08/21 11:32:44;;;;;;;13.57;2.97;;;23.50;99.90;;;;;;5115573;27;20118;-68
2022/08/21 11:35:39;;;;;;;10.80;2.35;;;23.40;99.90;;;;;;5108018;27;20713;-68
2022/08/21 11:38:21;;;;;;;9.50;1.95;;;23.30;99.90;;;;;;5112436;27;20384;-68
2022/08/21 11:41:24;;;;;;;11.15;2.80;;;23.10;99.90;;;;;;5110506;27;20116;-68
2022/08/21 11:44:17;;;;;;;10.90;2.15;;;23.00;99.90;;;;;;5131640;27;20346;-68
2022/08/21 11:47:13;;;;;;;11.85;2.40;;;22.90;99.90;;;;;;5132944;27;20558;-68
2022/08/21 11:49:48;;;;;;;9.40;2.17;;;22.80;99.90;;;;;;5111064;27;20088;-68
2022/08/21 11:52:21;;;;;;;9.45;1.92;;;22.80;99.90;;;;;;5103801;27;20054;-68
2022/08/21 11:54:52;;;;;;;8.00;2.00;;;22.80;99.90;;;;;;5114271;27;20522;-68
2022/08/21 11:57:29;;;;;;;7.95;2.13;;;22.80;99.90;;;;;;5096337;27;20061;-68
2022/08/21 12:00:00;;;;;;;8.55;2.10;;;22.80;99.90;;;;;;5141992;27;20073;-68
2022/08/21 12:02:37;;;;;;;11.45;2.17;;;22.80;99.90;;;;;;5137206;27;20078;-68
2022/08/21 12:05:24;;;;;;;10.63;2.50;;;22.70;99.90;;;;;;5138053;27;20613;-68
2022/08/21 12:08:01;;;;;;;12.15;2.25;;;22.70;99.90;;;;;;5148913;27;20035;-69
2022/08/21 12:10:36;;;;;;;8.15;1.92;;;22.70;99.90;;;;;;5145606;27;20046;-69
2022/08/21 12:13:21;;;;;;;6.55;2.20;;;22.80;99.90;;;;;;5116379;27;20042;-68
2022/08/21 12:15:47;;;;;;;12.10;2.17;;;22.90;99.90;;;;;;5121507;27;20039;-68
2022/08/21 12:18:28;;;;;;;11.57;2.00;;;23.10;99.90;;;;;;5123557;27;20042;-68
2022/08/21 12:21:18;;;;;;;8.35;1.70;;;23.10;99.90;;;;;;5124214;27;20046;-69
2022/08/21 12:23:47;;;;;;;9.45;2.40;;;23.30;99.90;;;;;;5139220;27;20043;-68
2022/08/21 12:26:19;;;;;;;7.45;1.60;;;23.40;99.90;;;;;;5141449;27;20065;-69
2022/08/21 12:28:45;;;;;;;6.53;1.60;;;23.50;99.90;;;;;;5114748;27;20035;-69
2022/08/21 12:31:24;;;;;;;5.80;1.67;;;23.50;99.90;;;;;;5133592;27;20034;-69
2022/08/21 12:34:02;;;;;;;7.78;1.52;;;23.60;99.90;;;;;;5112591;27;20134;-69
2022/08/21 12:36:43;;;;;;;5.88;1.40;;;23.60;99.90;;;;;;5095728;27;20065;-69
2022/08/21 12:39:12;;;;;;;;;;;23.60;99.90;;;;;;5139515;27;20061;-68
2022/08/21 12:41:53;;;;;;;7.78;2.05;;;23.60;99.90;;;;;;5102084;27;20014;-69
2022/08/21 12:44:27;;;;;;;8.48;1.80;;;23.50;99.90;;;;;;5139429;27;20046;-69
2022/08/21 12:46:59;;;;;;;8.68;1.55;;;23.50;99.90;;;;;;5120015;27;20410;-68
2022/08/21 12:49:36;;;;;;;10.52;1.98;;;23.50;99.90;;;;;;5135308;27;20039;-69
2022/08/21 12:52:20;;;;;;;7.95;1.80;;;23.40;99.90;;;;;;5121909;27;20062;-68
2022/08/21 12:54:46;;;;;;;7.78;2.15;;;23.40;99.90;;;;;;5138708;27;20441;-68
2022/08/21 12:57:22;;;;;;;9.48;2.10;;;23.40;99.90;;;;;;5138793;27;20045;-68
2022/08/21 12:59:53;;;;;;;7.57;1.38;;;23.30;99.90;;;;;;5117803;27;20045;-68
2022/08/21 13:02:23;;;;;;;6.60;1.42;;;23.30;99.90;;;;;;5120080;27;20464;-68